sensor_id;sensor_type;location;lat;lon;timestamp;temperature;humidity
52543;DHT22;38449;52.696;6.186;2023-05-28T00:01:26;12.70;99.90
52543;DHT22;38449;52.696;6.186;2023-05-28T00:03:52;12.70;99.90
52543;DHT22;38449;52.696;6.186;2023-05-28T00:06:18;12.70;99.90
52543;DHT22;38449;52.696;6.186;2023-05-28T00:08:45;12.60;99.90
52543;DHT22;38449;52.696;6.186;2023-05-28T00:11:11;12.60;99.90
52543;DHT22;38449;52.696;6.186;2023-05-28T00:13:38;12.60;99.90
52543;DHT22;38449;52.696;6.186;2023-05-28T00:16:04;12.50;99.90
52543;DHT22;38449;52.696;6.186;2023-05-28T00:18:31;12.50;99.90
52543;DHT22;38449;52.696;6.186;2023-05-28T00:20:57;12.40;99.90
52543;DHT22;38449;52.696;6.186;2023-05-28T00:23:23;12.40;99.90
52543;DHT22;38449;52.696;6.186;2023-05-28T00:25:49;12.30;99.90
52543;DHT22;38449;52.696;6.186;2023-05-28T00:28:16;12.30;99.90
52543;DHT22;38449;52.696;6.186;2023-05-28T00:30:42;12.20;99.90
52543;DHT22;38449;52.696;6.186;2023-05-28T00:33:08;12.10;99.90
52543;DHT22;38449;52.696;6.186;2023-05-28T00:35:34;12.10;99.90
52543;DHT22;38449;52.696;6.186;2023-05-28T00:38:01;12.10;99.90
52543;DHT22;38449;52.696;6.186;2023-05-28T00:40:27;12.00;99.90
52543;DHT22;38449;52.696;6.186;2023-05-28T00:42:53;12.00;99.90
52543;DHT22;38449;52.696;6.186;2023-05-28T00:45:20;11.90;99.90
52543;DHT22;38449;52.696;6.186;2023-05-28T00:47:46;11.90;99.90
52543;DHT22;38449;52.696;6.186;2023-05-28T00:50:13;11.90;99.90
52543;DHT22;38449;52.696;6.186;2023-05-28T00:52:40;11.90;99.90
52543;DHT22;38449;52.696;6.186;2023-05-28T00:55:16;11.80;99.90
52543;DHT22;38449;52.696;6.186;2023-05-28T00:57:43;11.80;99.90
52543;DHT22;38449;52.696;6.186;2023-05-28T01:00:12;11.70;99.90
52543;DHT22;38449;52.696;6.186;2023-05-28T01:02:40;11.70;99.90
52543;DHT22;38449;52.696;6.186;2023-05-28T01:05:06;11.80;99.90
52543;DHT22;38449;52.696;6.186;2023-05-28T01:07:33;11.80;99.90
52543;DHT22;38449;52.696;6.186;2023-05-28T01:09:59;11.70;99.90
52543;DHT22;38449;52.696;6.186;2023-05-28T01:12:26;11.70;99.90
52543;DHT22;38449;52.696;6.186;2023-05-28T01:14:53;11.70;99.90
52543;DHT22;38449;52.696;6.186;2023-05-28T01:17:20;11.80;99.90
52543;DHT22;38449;52.696;6.186;2023-05-28T01:19:47;11.80;99.90
52543;DHT22;38449;52.696;6.186;2023-05-28T01:22:17;11.70;99.90
52543;DHT22;38449;52.696;6.186;2023-05-28T01:24:43;11.70;99.90
52543;DHT22;38449;52.696;6.186;2023-05-28T01:27:12;11.70;99.90
52543;DHT22;38449;52.696;6.186;2023-05-28T01:29:39;11.70;99.90
52543;DHT22;38449;52.696;6.186;2023-05-28T01:32:05;11.80;99.90
52543;DHT22;38449;52.696;6.186;2023-05-28T01:34:31;11.70;99.90
52543;DHT22;38449;52.696;6.186;2023-05-28T01:37:01;11.70;99.90
52543;DHT22;38449;52.696;6.186;2023-05-28T01:39:30;11.80;99.90
52543;DHT22;38449;52.696;6.186;2023-05-28T01:42:00;11.70;99.90
52543;DHT22;38449;52.696;6.186;2023-05-28T01:44:29;11.70;99.90
52543;DHT22;38449;52.696;6.186;2023-05-28T01:46:56;11.70;99.90
52543;DHT22;38449;52.696;6.186;2023-05-28T01:49:23;11.70;99.90
52543;DHT22;38449;52.696;6.186;2023-05-28T01:51:52;11.70;99.90
52543;DHT22;38449;52.696;6.186;2023-05-28T01:54:19;11.60;99.90
52543;DHT22;38449;52.696;6.186;2023-05-28T01:56:46;11.70;99.90
52543;DHT22;38449;52.696;6.186;2023-05-28T01:59:12;11.70;99.90
52543;DHT22;38449;52.696;6.186;2023-05-28T02:01:39;11.70;99.90
52543;DHT22;38449;52.696;6.186;2023-05-28T02:04:05;11.70;99.90
52543;DHT22;38449;52.696;6.186;2023-05-28T02:06:32;11.60;99.90
52543;DHT22;38449;52.696;6.186;2023-05-28T02:08:59;11.70;99.90
52543;DHT22;38449;52.696;6.186;2023-05-28T02:11:25;11.60;99.90
52543;DHT22;38449;52.696;6.186;2023-05-28T02:13:52;11.60;99.90
52543;DHT22;38449;52.696;6.186;2023-05-28T02:16:18;11.60;99.90
52543;DHT22;38449;52.696;6.186;2023-05-28T02:18:45;11.50;99.90
52543;DHT22;38449;52.696;6.186;2023-05-28T02:21:12;11.50;99.90
52543;DHT22;38449;52.696;6.186;2023-05-28T02:23:47;11.50;99.90
52543;DHT22;38449;52.696;6.186;2023-05-28T02:26:13;11.50;99.90
52543;DHT22;38449;52.696;6.186;2023-05-28T02:28:41;11.40;99.90
52543;DHT22;38449;52.696;6.186;2023-05-28T02:31:10;11.40;99.90
52543;DHT22;38449;52.696;6.186;2023-05-28T02:33:38;11.50;99.90
52543;DHT22;38449;52.696;6.186;2023-05-28T02:36:04;11.50;99.90
52543;DHT22;38449;52.696;6.186;2023-05-28T02:38:32;11.50;99.90
52543;DHT22;38449;52.696;6.186;2023-05-28T02:40:59;11.50;99.90
52543;DHT22;38449;52.696;6.186;2023-05-28T02:43:25;11.50;99.90
52543;DHT22;38449;52.696;6.186;2023-05-28T02:45:51;11.40;99.90
52543;DHT22;38449;52.696;6.186;2023-05-28T02:48:17;11.50;99.90
52543;DHT22;38449;52.696;6.186;2023-05-28T02:50:43;11.40;99.90
52543;DHT22;38449;52.696;6.186;2023-05-28T02:53:10;11.50;99.90
52543;DHT22;38449;52.696;6.186;2023-05-28T02:55:36;11.50;99.90
52543;DHT22;38449;52.696;6.186;2023-05-28T02:58:02;11.40;99.90
52543;DHT22;38449;52.696;6.186;2023-05-28T03:00:29;11.50;99.90
52543;DHT22;38449;52.696;6.186;2023-05-28T03:02:55;11.40;99.90
52543;DHT22;38449;52.696;6.186;2023-05-28T03:05:21;11.50;99.90
52543;DHT22;38449;52.696;6.186;2023-05-28T03:07:49;11.40;99.90
52543;DHT22;38449;52.696;6.186;2023-05-28T03:10:16;11.40;99.90
52543;DHT22;38449;52.696;6.186;2023-05-28T03:12:42;11.50;99.90
52543;DHT22;38449;52.696;6.186;2023-05-28T03:15:09;11.50;99.90
52543;DHT22;38449;52.696;6.186;2023-05-28T03:17:35;11.40;99.90
52543;DHT22;38449;52.696;6.186;2023-05-28T03:20:01;11.40;99.90
52543;DHT22;38449;52.696;6.186;2023-05-28T03:22:28;11.50;99.90
52543;DHT22;38449;52.696;6.186;2023-05-28T03:24:54;11.50;99.90
52543;DHT22;38449;52.696;6.186;2023-05-28T03:27:23;11.40;99.90
52543;DHT22;38449;52.696;6.186;2023-05-28T03:29:49;11.40;99.90
52543;DHT22;38449;52.696;6.186;2023-05-28T03:32:15;11.50;99.90
52543;DHT22;38449;52.696;6.186;2023-05-28T03:34:42;11.40;99.90
52543;DHT22;38449;52.696;6.186;2023-05-28T03:37:08;11.40;99.90
52543;DHT22;38449;52.696;6.186;2023-05-28T03:39:34;11.40;99.90
52543;DHT22;38449;52.696;6.186;2023-05-28T03:42:00;11.20;99.90
52543;DHT22;38449;52.696;6.186;2023-05-28T03:44:27;11.30;99.90
52543;DHT22;38449;52.696;6.186;2023-05-28T03:46:53;11.30;99.90
52543;DHT22;38449;52.696;6.186;2023-05-28T03:49:22;11.30;99.90
52543;DHT22;38449;52.696;6.186;2023-05-28T03:51:49;11.40;99.90
52543;DHT22;38449;52.696;6.186;2023-05-28T03:54:15;11.30;99.90
52543;DHT22;38449;52.696;6.186;2023-05-28T03:56:41;11.30;99.90
52543;DHT22;38449;52.696;6.186;2023-05-28T03:59:07;11.40;99.90
52543;DHT22;38449;52.696;6.186;2023-05-28T04:01:34;11.30;99.90
52543;DHT22;38449;52.696;6.186;2023-05-28T04:04:02;11.30;99.90
52543;DHT22;38449;52.696;6.186;2023-05-28T04:06:29;11.30;99.90
52543;DHT22;38449;52.696;6.186;2023-05-28T04:08:56;11.40;99.90
52543;DHT22;38449;52.696;6.186;2023-05-28T04:11:23;11.40;99.90
52543;DHT22;38449;52.696;6.186;2023-05-28T04:13:51;11.30;99.90
52543;DHT22;38449;52.696;6.186;2023-05-28T04:16:17;11.40;99.90
52543;DHT22;38449;52.696;6.186;2023-05-28T04:18:45;11.30;99.90
52543;DHT22;38449;52.696;6.186;2023-05-28T04:21:12;11.40;99.90
52543;DHT22;38449;52.696;6.186;2023-05-28T04:23:38;11.40;99.90
52543;DHT22;38449;52.696;6.186;2023-05-28T04:26:04;11.50;99.90
52543;DHT22;38449;52.696;6.186;2023-05-28T04:28:32;11.40;99.90
52543;DHT22;38449;52.696;6.186;2023-05-28T04:31:03;11.50;99.90
52543;DHT22;38449;52.696;6.186;2023-05-28T04:33:29;11.50;99.90
52543;DHT22;38449;52.696;6.186;2023-05-28T04:35:58;11.60;99.90
52543;DHT22;38449;52.696;6.186;2023-05-28T04:38:26;11.60;99.90
52543;DHT22;38449;52.696;6.186;2023-05-28T04:40:55;11.70;99.90
52543;DHT22;38449;52.696;6.186;2023-05-28T04:43:21;11.70;99.90
52543;DHT22;38449;52.696;6.186;2023-05-28T04:45:48;11.80;99.90
52543;DHT22;38449;52.696;6.186;2023-05-28T04:48:14;11.90;99.90
52543;DHT22;38449;52.696;6.186;2023-05-28T04:50:40;11.90;99.90
52543;DHT22;38449;52.696;6.186;2023-05-28T04:53:07;12.10;99.90
52543;DHT22;38449;52.696;6.186;2023-05-28T04:55:34;12.60;99.90
52543;DHT22;38449;52.696;6.186;2023-05-28T04:58:01;13.30;99.90
52543;DHT22;38449;52.696;6.186;2023-05-28T05:00:27;14.00;99.90
52543;DHT22;38449;52.696;6.186;2023-05-28T05:02:54;14.60;99.90
52543;DHT22;38449;52.696;6.186;2023-05-28T05:05:20;15.30;99.90
52543;DHT22;38449;52.696;6.186;2023-05-28T05:07:47;15.80;99.90
52543;DHT22;38449;52.696;6.186;2023-05-28T05:10:13;16.20;99.90
52543;DHT22;38449;52.696;6.186;2023-05-28T05:12:39;16.60;99.90
52543;DHT22;38449;52.696;6.186;2023-05-28T05:15:06;17.00;99.90
52543;DHT22;38449;52.696;6.186;2023-05-28T05:17:33;17.50;99.90
52543;DHT22;38449;52.696;6.186;2023-05-28T05:20:01;17.80;99.90
52543;DHT22;38449;52.696;6.186;2023-05-28T05:22:27;18.10;99.90
52543;DHT22;38449;52.696;6.186;2023-05-28T05:24:54;18.30;99.90
52543;DHT22;38449;52.696;6.186;2023-05-28T05:27:20;18.10;99.90
52543;DHT22;38449;52.696;6.186;2023-05-28T05:29:46;17.90;99.90
52543;DHT22;38449;52.696;6.186;2023-05-28T05:32:12;17.90;99.90
52543;DHT22;38449;52.696;6.186;2023-05-28T05:34:39;17.80;99.90
52543;DHT22;38449;52.696;6.186;2023-05-28T05:37:05;17.70;99.90
52543;DHT22;38449;52.696;6.186;2023-05-28T05:39:32;17.30;99.90
52543;DHT22;38449;52.696;6.186;2023-05-28T05:41:58;16.60;99.90
52543;DHT22;38449;52.696;6.186;2023-05-28T05:44:26;16.20;99.90
52543;DHT22;38449;52.696;6.186;2023-05-28T05:46:52;16.00;99.90
52543;DHT22;38449;52.696;6.186;2023-05-28T05:49:19;15.90;99.90
52543;DHT22;38449;52.696;6.186;2023-05-28T05:51:45;15.80;99.90
52543;DHT22;38449;52.696;6.186;2023-05-28T05:54:12;15.70;99.90
52543;DHT22;38449;52.696;6.186;2023-05-28T05:56:38;15.80;99.90
52543;DHT22;38449;52.696;6.186;2023-05-28T05:59:05;15.80;99.90
52543;DHT22;38449;52.696;6.186;2023-05-28T06:01:31;15.70;99.90
52543;DHT22;38449;52.696;6.186;2023-05-28T06:03:57;15.70;99.90
52543;DHT22;38449;52.696;6.186;2023-05-28T06:06:24;15.80;99.90
52543;DHT22;38449;52.696;6.186;2023-05-28T06:08:50;15.90;99.90
52543;DHT22;38449;52.696;6.186;2023-05-28T06:11:17;16.00;99.90
52543;DHT22;38449;52.696;6.186;2023-05-28T06:13:43;16.10;99.90
52543;DHT22;38449;52.696;6.186;2023-05-28T06:16:09;16.20;99.90
52543;DHT22;38449;52.696;6.186;2023-05-28T06:18:37;16.10;99.90
52543;DHT22;38449;52.696;6.186;2023-05-28T06:21:03;16.00;99.90
52543;DHT22;38449;52.696;6.186;2023-05-28T06:23:29;16.00;99.90
52543;DHT22;38449;52.696;6.186;2023-05-28T06:25:56;16.00;99.90
52543;DHT22;38449;52.696;6.186;2023-05-28T06:28:22;15.90;99.90
52543;DHT22;38449;52.696;6.186;2023-05-28T06:30:49;16.20;99.90
52543;DHT22;38449;52.696;6.186;2023-05-28T06:33:15;16.40;99.90
52543;DHT22;38449;52.696;6.186;2023-05-28T06:35:41;16.70;99.90
52543;DHT22;38449;52.696;6.186;2023-05-28T06:38:08;17.00;99.90
52543;DHT22;38449;52.696;6.186;2023-05-28T06:40:34;17.60;99.90
52543;DHT22;38449;52.696;6.186;2023-05-28T06:43:00;17.90;99.90
52543;DHT22;38449;52.696;6.186;2023-05-28T06:45:27;18.20;99.90
52543;DHT22;38449;52.696;6.186;2023-05-28T06:47:53;18.60;99.90
52543;DHT22;38449;52.696;6.186;2023-05-28T06:50:19;19.00;99.90
52543;DHT22;38449;52.696;6.186;2023-05-28T06:52:46;19.20;99.90
52543;DHT22;38449;52.696;6.186;2023-05-28T06:55:12;19.00;99.90
52543;DHT22;38449;52.696;6.186;2023-05-28T06:57:38;18.50;99.90
52543;DHT22;38449;52.696;6.186;2023-05-28T07:00:05;18.40;99.90
52543;DHT22;38449;52.696;6.186;2023-05-28T07:02:39;18.30;99.90
52543;DHT22;38449;52.696;6.186;2023-05-28T07:05:06;18.10;99.90
52543;DHT22;38449;52.696;6.186;2023-05-28T07:07:33;18.00;99.90
52543;DHT22;38449;52.696;6.186;2023-05-28T07:09:59;18.10;99.90
52543;DHT22;38449;52.696;6.186;2023-05-28T07:12:25;18.30;99.90
52543;DHT22;38449;52.696;6.186;2023-05-28T07:14:52;18.60;99.90
52543;DHT22;38449;52.696;6.186;2023-05-28T07:17:18;18.50;99.90
52543;DHT22;38449;52.696;6.186;2023-05-28T07:19:47;18.60;99.90
52543;DHT22;38449;52.696;6.186;2023-05-28T07:22:14;18.80;99.90
52543;DHT22;38449;52.696;6.186;2023-05-28T07:24:40;18.70;99.90
52543;DHT22;38449;52.696;6.186;2023-05-28T07:27:06;18.80;99.90
52543;DHT22;38449;52.696;6.186;2023-05-28T07:29:33;18.90;99.90
52543;DHT22;38449;52.696;6.186;2023-05-28T07:31:59;19.00;99.90
52543;DHT22;38449;52.696;6.186;2023-05-28T07:34:25;19.10;99.90
52543;DHT22;38449;52.696;6.186;2023-05-28T07:36:51;19.10;99.90
52543;DHT22;38449;52.696;6.186;2023-05-28T07:39:18;19.20;99.90
52543;DHT22;38449;52.696;6.186;2023-05-28T07:41:44;19.30;99.90
52543;DHT22;38449;52.696;6.186;2023-05-28T07:44:11;19.20;99.90
52543;DHT22;38449;52.696;6.186;2023-05-28T07:46:37;19.20;99.90
52543;DHT22;38449;52.696;6.186;2023-05-28T07:49:03;19.40;99.90
52543;DHT22;38449;52.696;6.186;2023-05-28T07:51:29;19.40;99.90
52543;DHT22;38449;52.696;6.186;2023-05-28T07:53:57;19.50;99.90
52543;DHT22;38449;52.696;6.186;2023-05-28T07:56:24;19.50;99.90
52543;DHT22;38449;52.696;6.186;2023-05-28T07:58:50;19.50;99.90
52543;DHT22;38449;52.696;6.186;2023-05-28T08:01:17;19.60;99.90
52543;DHT22;38449;52.696;6.186;2023-05-28T08:03:43;19.70;99.90
52543;DHT22;38449;52.696;6.186;2023-05-28T08:06:09;19.70;99.90
52543;DHT22;38449;52.696;6.186;2023-05-28T08:08:36;19.70;99.90
52543;DHT22;38449;52.696;6.186;2023-05-28T08:11:02;19.60;99.90
52543;DHT22;38449;52.696;6.186;2023-05-28T08:13:29;19.70;99.90
52543;DHT22;38449;52.696;6.186;2023-05-28T08:15:58;19.70;99.90
52543;DHT22;38449;52.696;6.186;2023-05-28T08:18:25;19.70;99.90
52543;DHT22;38449;52.696;6.186;2023-05-28T08:20:52;19.80;99.90
52543;DHT22;38449;52.696;6.186;2023-05-28T08:23:18;19.80;99.90
52543;DHT22;38449;52.696;6.186;2023-05-28T08:25:44;20.00;99.90
52543;DHT22;38449;52.696;6.186;2023-05-28T08:28:11;20.00;99.90
52543;DHT22;38449;52.696;6.186;2023-05-28T08:30:37;19.90;99.90
52543;DHT22;38449;52.696;6.186;2023-05-28T08:33:03;20.10;99.90
52543;DHT22;38449;52.696;6.186;2023-05-28T08:35:30;20.20;99.90
52543;DHT22;38449;52.696;6.186;2023-05-28T08:37:56;20.10;99.90
52543;DHT22;38449;52.696;6.186;2023-05-28T08:40:23;20.20;99.90
52543;DHT22;38449;52.696;6.186;2023-05-28T08:42:49;20.20;99.90
52543;DHT22;38449;52.696;6.186;2023-05-28T08:45:16;20.10;99.90
52543;DHT22;38449;52.696;6.186;2023-05-28T08:47:43;20.20;99.90
52543;DHT22;38449;52.696;6.186;2023-05-28T08:50:11;20.20;99.90
52543;DHT22;38449;52.696;6.186;2023-05-28T08:52:39;20.10;99.90
52543;DHT22;38449;52.696;6.186;2023-05-28T08:55:06;20.10;99.90
52543;DHT22;38449;52.696;6.186;2023-05-28T08:57:37;20.10;99.90
52543;DHT22;38449;52.696;6.186;2023-05-28T09:00:05;20.10;99.90
52543;DHT22;38449;52.696;6.186;2023-05-28T09:02:34;20.10;99.90
52543;DHT22;38449;52.696;6.186;2023-05-28T09:05:00;20.00;99.90
52543;DHT22;38449;52.696;6.186;2023-05-28T09:07:27;20.00;99.90
52543;DHT22;38449;52.696;6.186;2023-05-28T09:09:53;20.00;99.90
52543;DHT22;38449;52.696;6.186;2023-05-28T09:12:22;20.20;99.90
52543;DHT22;38449;52.696;6.186;2023-05-28T09:14:51;20.30;99.90
52543;DHT22;38449;52.696;6.186;2023-05-28T09:17:38;20.30;99.90
52543;DHT22;38449;52.696;6.186;2023-05-28T09:20:11;20.40;99.90
52543;DHT22;38449;52.696;6.186;2023-05-28T09:22:41;20.40;99.90
52543;DHT22;38449;52.696;6.186;2023-05-28T09:25:08;20.50;99.90
52543;DHT22;38449;52.696;6.186;2023-05-28T09:27:37;20.60;99.90
52543;DHT22;38449;52.696;6.186;2023-05-28T09:30:07;20.80;99.90
52543;DHT22;38449;52.696;6.186;2023-05-28T09:32:35;20.80;99.70
52543;DHT22;38449;52.696;6.186;2023-05-28T09:35:03;20.90;99.80
52543;DHT22;38449;52.696;6.186;2023-05-28T09:37:30;21.00;99.50
52543;DHT22;38449;52.696;6.186;2023-05-28T09:40:03;21.00;99.70
52543;DHT22;38449;52.696;6.186;2023-05-28T09:42:37;21.20;99.60
52543;DHT22;38449;52.696;6.186;2023-05-28T09:45:06;21.30;99.50
52543;DHT22;38449;52.696;6.186;2023-05-28T09:47:32;21.30;99.00
52543;DHT22;38449;52.696;6.186;2023-05-28T09:50:00;21.40;99.30
52543;DHT22;38449;52.696;6.186;2023-05-28T09:52:27;21.40;99.10
52543;DHT22;38449;52.696;6.186;2023-05-28T09:54:55;21.40;99.20
52543;DHT22;38449;52.696;6.186;2023-05-28T09:57:29;21.60;99.20
52543;DHT22;38449;52.696;6.186;2023-05-28T09:59:56;21.60;98.50
52543;DHT22;38449;52.696;6.186;2023-05-28T10:02:31;21.50;98.40
52543;DHT22;38449;52.696;6.186;2023-05-28T10:05:02;21.40;98.40
52543;DHT22;38449;52.696;6.186;2023-05-28T10:07:29;21.30;98.80
52543;DHT22;38449;52.696;6.186;2023-05-28T10:09:57;21.30;99.20
52543;DHT22;38449;52.696;6.186;2023-05-28T10:12:29;21.50;99.10
52543;DHT22;38449;52.696;6.186;2023-05-28T10:14:56;21.30;98.50
52543;DHT22;38449;52.696;6.186;2023-05-28T10:17:23;21.50;98.70
52543;DHT22;38449;52.696;6.186;2023-05-28T10:19:51;21.40;98.40
52543;DHT22;38449;52.696;6.186;2023-05-28T10:22:17;21.50;98.40
52543;DHT22;38449;52.696;6.186;2023-05-28T10:24:44;21.50;98.10
52543;DHT22;38449;52.696;6.186;2023-05-28T10:27:14;21.60;98.30
52543;DHT22;38449;52.696;6.186;2023-05-28T10:29:43;21.80;98.30
52543;DHT22;38449;52.696;6.186;2023-05-28T10:32:09;21.80;98.20
52543;DHT22;38449;52.696;6.186;2023-05-28T10:34:39;21.80;98.10
52543;DHT22;38449;52.696;6.186;2023-05-28T10:37:07;21.90;98.10
52543;DHT22;38449;52.696;6.186;2023-05-28T10:39:43;22.00;98.00
52543;DHT22;38449;52.696;6.186;2023-05-28T10:42:16;21.90;97.50
52543;DHT22;38449;52.696;6.186;2023-05-28T10:45:05;22.00;97.20
52543;DHT22;38449;52.696;6.186;2023-05-28T10:47:38;21.80;96.90
52543;DHT22;38449;52.696;6.186;2023-05-28T10:50:12;22.00;97.20
52543;DHT22;38449;52.696;6.186;2023-05-28T10:52:38;22.20;97.10
52543;DHT22;38449;52.696;6.186;2023-05-28T10:55:10;22.40;97.00
52543;DHT22;38449;52.696;6.186;2023-05-28T10:57:44;22.40;96.10
52543;DHT22;38449;52.696;6.186;2023-05-28T11:00:12;22.30;95.70
52543;DHT22;38449;52.696;6.186;2023-05-28T11:02:43;22.40;95.00
52543;DHT22;38449;52.696;6.186;2023-05-28T11:05:10;22.40;94.70
52543;DHT22;38449;52.696;6.186;2023-05-28T11:07:41;22.40;93.80
52543;DHT22;38449;52.696;6.186;2023-05-28T11:10:08;22.30;93.70
52543;DHT22;38449;52.696;6.186;2023-05-28T11:12:37;22.30;93.80
52543;DHT22;38449;52.696;6.186;2023-05-28T11:15:06;22.50;94.00
52543;DHT22;38449;52.696;6.186;2023-05-28T11:17:39;22.60;93.50
52543;DHT22;38449;52.696;6.186;2023-05-28T11:20:18;22.60;93.30
52543;DHT22;38449;52.696;6.186;2023-05-28T11:22:44;22.60;92.80
52543;DHT22;38449;52.696;6.186;2023-05-28T11:25:11;22.60;93.00
52543;DHT22;38449;52.696;6.186;2023-05-28T11:27:38;22.60;92.90
52543;DHT22;38449;52.696;6.186;2023-05-28T11:30:11;22.60;93.30
52543;DHT22;38449;52.696;6.186;2023-05-28T11:32:37;22.70;93.20
52543;DHT22;38449;52.696;6.186;2023-05-28T11:35:04;22.90;92.30
52543;DHT22;38449;52.696;6.186;2023-05-28T11:37:34;23.00;93.10
52543;DHT22;38449;52.696;6.186;2023-05-28T11:40:02;23.00;92.70
52543;DHT22;38449;52.696;6.186;2023-05-28T11:42:31;23.10;91.80
52543;DHT22;38449;52.696;6.186;2023-05-28T11:44:58;23.10;91.60
52543;DHT22;38449;52.696;6.186;2023-05-28T11:47:24;23.00;91.20
52543;DHT22;38449;52.696;6.186;2023-05-28T11:49:52;23.00;91.10
52543;DHT22;38449;52.696;6.186;2023-05-28T11:52:20;22.90;91.10
52543;DHT22;38449;52.696;6.186;2023-05-28T11:54:52;23.10;91.30
52543;DHT22;38449;52.696;6.186;2023-05-28T11:57:24;23.20;91.10
52543;DHT22;38449;52.696;6.186;2023-05-28T12:00:08;23.20;90.40
52543;DHT22;38449;52.696;6.186;2023-05-28T12:02:45;23.10;90.20
52543;DHT22;38449;52.696;6.186;2023-05-28T12:05:12;23.10;90.10
52543;DHT22;38449;52.696;6.186;2023-05-28T12:07:46;23.10;89.80
52543;DHT22;38449;52.696;6.186;2023-05-28T12:10:15;23.20;89.00
52543;DHT22;38449;52.696;6.186;2023-05-28T12:12:44;23.20;89.20
52543;DHT22;38449;52.696;6.186;2023-05-28T12:15:12;23.30;89.10
52543;DHT22;38449;52.696;6.186;2023-05-28T12:17:40;23.40;86.80
52543;DHT22;38449;52.696;6.186;2023-05-28T12:22:39;23.30;85.20
52543;DHT22;38449;52.696;6.186;2023-05-28T12:25:06;23.10;84.30
52543;DHT22;38449;52.696;6.186;2023-05-28T12:27:33;23.10;85.10
52543;DHT22;38449;52.696;6.186;2023-05-28T12:30:00;23.30;84.20
52543;DHT22;38449;52.696;6.186;2023-05-28T12:32:26;23.30;83.60
52543;DHT22;38449;52.696;6.186;2023-05-28T12:34:58;23.40;82.10
52543;DHT22;38449;52.696;6.186;2023-05-28T12:37:24;23.20;81.40
52543;DHT22;38449;52.696;6.186;2023-05-28T12:39:51;22.90;81.50
52543;DHT22;38449;52.696;6.186;2023-05-28T12:42:17;23.20;80.50
52543;DHT22;38449;52.696;6.186;2023-05-28T12:44:44;23.20;80.40
52543;DHT22;38449;52.696;6.186;2023-05-28T12:47:11;23.20;80.30
52543;DHT22;38449;52.696;6.186;2023-05-28T12:49:37;23.20;80.00
52543;DHT22;38449;52.696;6.186;2023-05-28T12:52:04;23.10;78.20
52543;DHT22;38449;52.696;6.186;2023-05-28T12:54:30;23.10;79.00
52543;DHT22;38449;52.696;6.186;2023-05-28T12:56:57;23.10;79.20
52543;DHT22;38449;52.696;6.186;2023-05-28T12:59:25;23.20;79.10
52543;DHT22;38449;52.696;6.186;2023-05-28T13:01:51;23.30;78.60
52543;DHT22;38449;52.696;6.186;2023-05-28T13:04:18;23.40;77.80
52543;DHT22;38449;52.696;6.186;2023-05-28T13:06:45;23.30;77.10
52543;DHT22;38449;52.696;6.186;2023-05-28T13:09:11;23.40;77.00
52543;DHT22;38449;52.696;6.186;2023-05-28T13:11:39;23.30;76.10
52543;DHT22;38449;52.696;6.186;2023-05-28T13:14:06;23.30;74.90
52543;DHT22;38449;52.696;6.186;2023-05-28T13:16:33;23.30;75.20
52543;DHT22;38449;52.696;6.186;2023-05-28T13:18:59;23.50;75.00
52543;DHT22;38449;52.696;6.186;2023-05-28T13:21:31;23.40;73.30
52543;DHT22;38449;52.696;6.186;2023-05-28T13:24:02;23.30;72.80
52543;DHT22;38449;52.696;6.186;2023-05-28T13:26:30;23.30;73.60
52543;DHT22;38449;52.696;6.186;2023-05-28T13:28:57;23.50;73.90
52543;DHT22;38449;52.696;6.186;2023-05-28T13:31:23;23.50;73.60
52543;DHT22;38449;52.696;6.186;2023-05-28T13:33:49;23.50;74.30
52543;DHT22;38449;52.696;6.186;2023-05-28T13:36:16;23.50;74.30
52543;DHT22;38449;52.696;6.186;2023-05-28T13:38:43;23.30;74.20
52543;DHT22;38449;52.696;6.186;2023-05-28T13:41:10;23.30;75.70
52543;DHT22;38449;52.696;6.186;2023-05-28T13:43:38;23.30;76.60
52543;DHT22;38449;52.696;6.186;2023-05-28T13:46:04;23.40;77.70
52543;DHT22;38449;52.696;6.186;2023-05-28T13:48:31;23.40;78.40
52543;DHT22;38449;52.696;6.186;2023-05-28T13:50:58;23.50;79.60
52543;DHT22;38449;52.696;6.186;2023-05-28T13:53:25;23.50;79.10
52543;DHT22;38449;52.696;6.186;2023-05-28T13:55:52;23.50;77.70
52543;DHT22;38449;52.696;6.186;2023-05-28T13:58:18;23.50;79.20
52543;DHT22;38449;52.696;6.186;2023-05-28T14:00:44;23.30;81.10
52543;DHT22;38449;52.696;6.186;2023-05-28T14:03:10;23.30;81.50
52543;DHT22;38449;52.696;6.186;2023-05-28T14:05:40;23.30;81.60
52543;DHT22;38449;52.696;6.186;2023-05-28T14:08:07;23.30;82.20
52543;DHT22;38449;52.696;6.186;2023-05-28T14:10:33;23.30;82.40
52543;DHT22;38449;52.696;6.186;2023-05-28T14:12:59;23.40;82.70
52543;DHT22;38449;52.696;6.186;2023-05-28T14:15:26;23.30;82.30
52543;DHT22;38449;52.696;6.186;2023-05-28T14:17:52;23.30;82.60
52543;DHT22;38449;52.696;6.186;2023-05-28T14:20:18;23.30;83.90
52543;DHT22;38449;52.696;6.186;2023-05-28T14:22:44;23.30;86.00
52543;DHT22;38449;52.696;6.186;2023-05-28T14:25:11;23.30;86.60
52543;DHT22;38449;52.696;6.186;2023-05-28T14:27:38;23.30;87.80
52543;DHT22;38449;52.696;6.186;2023-05-28T14:30:05;23.40;90.10
52543;DHT22;38449;52.696;6.186;2023-05-28T14:32:31;23.40;90.50
52543;DHT22;38449;52.696;6.186;2023-05-28T14:34:59;23.40;91.80
52543;DHT22;38449;52.696;6.186;2023-05-28T14:37:25;23.50;92.70
52543;DHT22;38449;52.696;6.186;2023-05-28T14:39:52;23.40;92.80
52543;DHT22;38449;52.696;6.186;2023-05-28T14:42:18;23.20;93.10
52543;DHT22;38449;52.696;6.186;2023-05-28T14:44:44;23.10;93.00
52543;DHT22;38449;52.696;6.186;2023-05-28T14:47:11;23.00;93.30
52543;DHT22;38449;52.696;6.186;2023-05-28T14:49:37;22.90;93.60
52543;DHT22;38449;52.696;6.186;2023-05-28T14:52:24;22.90;93.00
52543;DHT22;38449;52.696;6.186;2023-05-28T14:54:54;22.80;93.00
52543;DHT22;38449;52.696;6.186;2023-05-28T14:57:22;22.70;93.40
52543;DHT22;38449;52.696;6.186;2023-05-28T14:59:48;22.70;93.30
52543;DHT22;38449;52.696;6.186;2023-05-28T15:02:15;22.60;93.20
52543;DHT22;38449;52.696;6.186;2023-05-28T15:04:43;22.40;93.20
52543;DHT22;38449;52.696;6.186;2023-05-28T15:07:10;22.40;93.30
52543;DHT22;38449;52.696;6.186;2023-05-28T15:09:37;22.40;93.30
52543;DHT22;38449;52.696;6.186;2023-05-28T15:12:04;22.40;93.30
52543;DHT22;38449;52.696;6.186;2023-05-28T15:14:33;22.40;93.50
52543;DHT22;38449;52.696;6.186;2023-05-28T15:16:59;22.40;93.50
52543;DHT22;38449;52.696;6.186;2023-05-28T15:19:26;22.40;93.40
52543;DHT22;38449;52.696;6.186;2023-05-28T15:21:52;22.40;93.40
52543;DHT22;38449;52.696;6.186;2023-05-28T15:24:19;22.40;93.30
52543;DHT22;38449;52.696;6.186;2023-05-28T15:26:46;22.30;93.10
52543;DHT22;38449;52.696;6.186;2023-05-28T15:29:13;22.30;93.00
52543;DHT22;38449;52.696;6.186;2023-05-28T15:31:46;22.30;93.10
52543;DHT22;38449;52.696;6.186;2023-05-28T15:34:13;22.30;93.20